sensor_id;sensor_type;location;lat;lon;timestamp;temperature;humidity
8537;DHT22;4306;50.210;10.628;2023-01-30T00:01:35;-1.90;99.90
8537;DHT22;4306;50.210;10.628;2023-01-30T00:04:03;-2.00;99.90
8537;DHT22;4306;50.210;10.628;2023-01-30T00:06:30;-1.90;99.90
8537;DHT22;4306;50.210;10.628;2023-01-30T00:08:57;-1.80;99.90
8537;DHT22;4306;50.210;10.628;2023-01-30T00:11:24;-1.70;99.90
8537;DHT22;4306;50.210;10.628;2023-01-30T00:13:54;-1.70;99.90
8537;DHT22;4306;50.210;10.628;2023-01-30T00:16:21;-1.80;99.90
8537;DHT22;4306;50.210;10.628;2023-01-30T00:18:48;-1.80;99.90
8537;DHT22;4306;50.210;10.628;2023-01-30T00:21:16;-1.70;99.90
8537;DHT22;4306;50.210;10.628;2023-01-30T00:23:43;-1.80;99.90
8537;DHT22;4306;50.210;10.628;2023-01-30T00:26:10;-1.80;99.90
8537;DHT22;4306;50.210;10.628;2023-01-30T00:28:38;-1.80;99.90
8537;DHT22;4306;50.210;10.628;2023-01-30T00:31:06;-1.80;99.90
8537;DHT22;4306;50.210;10.628;2023-01-30T00:33:35;-1.80;99.90
8537;DHT22;4306;50.210;10.628;2023-01-30T00:36:03;-1.80;99.90
8537;DHT22;4306;50.210;10.628;2023-01-30T00:38:32;-1.80;99.90
8537;DHT22;4306;50.210;10.628;2023-01-30T00:40:59;-1.80;99.90
8537;DHT22;4306;50.210;10.628;2023-01-30T00:43:26;-1.80;99.90
8537;DHT22;4306;50.210;10.628;2023-01-30T00:46:14;-1.60;99.90
8537;DHT22;4306;50.210;10.628;2023-01-30T00:49:00;-1.80;99.90
8537;DHT22;4306;50.210;10.628;2023-01-30T00:51:26;-1.80;99.90
8537;DHT22;4306;50.210;10.628;2023-01-30T00:53:55;-1.80;99.90
8537;DHT22;4306;50.210;10.628;2023-01-30T00:56:21;-1.80;99.90
8537;DHT22;4306;50.210;10.628;2023-01-30T00:58:48;-1.80;99.90
8537;DHT22;4306;50.210;10.628;2023-01-30T01:01:15;-1.80;99.90
8537;DHT22;4306;50.210;10.628;2023-01-30T01:03:42;-1.90;99.90
8537;DHT22;4306;50.210;10.628;2023-01-30T01:06:09;-1.80;99.90
8537;DHT22;4306;50.210;10.628;2023-01-30T01:08:36;-1.80;99.90
8537;DHT22;4306;50.210;10.628;2023-01-30T01:11:05;-1.80;99.90
8537;DHT22;4306;50.210;10.628;2023-01-30T01:13:32;-1.90;99.90
8537;DHT22;4306;50.210;10.628;2023-01-30T01:15:58;-1.90;99.90
8537;DHT22;4306;50.210;10.628;2023-01-30T01:18:25;-1.80;99.90
8537;DHT22;4306;50.210;10.628;2023-01-30T01:20:52;-1.90;99.90
8537;DHT22;4306;50.210;10.628;2023-01-30T01:23:19;-1.90;99.90
8537;DHT22;4306;50.210;10.628;2023-01-30T01:25:46;-1.80;99.90
8537;DHT22;4306;50.210;10.628;2023-01-30T01:28:14;-1.80;99.90
8537;DHT22;4306;50.210;10.628;2023-01-30T01:30:46;-1.80;99.90
8537;DHT22;4306;50.210;10.628;2023-01-30T01:33:12;-1.80;99.90
8537;DHT22;4306;50.210;10.628;2023-01-30T01:35:40;-1.80;99.90
8537;DHT22;4306;50.210;10.628;2023-01-30T01:38:06;-1.70;99.90
8537;DHT22;4306;50.210;10.628;2023-01-30T01:40:33;-1.70;99.90
8537;DHT22;4306;50.210;10.628;2023-01-30T01:43:21;-1.70;99.90
8537;DHT22;4306;50.210;10.628;2023-01-30T01:45:50;-1.70;99.90
8537;DHT22;4306;50.210;10.628;2023-01-30T01:48:21;-1.70;99.90
8537;DHT22;4306;50.210;10.628;2023-01-30T01:50:54;-1.70;99.90
8537;DHT22;4306;50.210;10.628;2023-01-30T01:53:27;-1.70;99.90
8537;DHT22;4306;50.210;10.628;2023-01-30T01:55:58;-1.80;99.90
8537;DHT22;4306;50.210;10.628;2023-01-30T01:58:32;-1.60;99.90
8537;DHT22;4306;50.210;10.628;2023-01-30T02:01:00;-1.80;99.90
8537;DHT22;4306;50.210;10.628;2023-01-30T02:03:31;-1.70;99.90
8537;DHT22;4306;50.210;10.628;2023-01-30T02:06:00;-1.80;99.90
8537;DHT22;4306;50.210;10.628;2023-01-30T02:08:31;-1.80;99.90
8537;DHT22;4306;50.210;10.628;2023-01-30T02:11:04;-1.80;99.90
8537;DHT22;4306;50.210;10.628;2023-01-30T02:13:33;-1.80;99.90
8537;DHT22;4306;50.210;10.628;2023-01-30T02:16:01;-1.70;99.90
8537;DHT22;4306;50.210;10.628;2023-01-30T02:18:30;-1.80;99.90
8537;DHT22;4306;50.210;10.628;2023-01-30T02:24:34;-1.80;99.90
8537;DHT22;4306;50.210;10.628;2023-01-30T02:27:20;-1.80;99.90
8537;DHT22;4306;50.210;10.628;2023-01-30T02:33:00;-1.80;99.90
8537;DHT22;4306;50.210;10.628;2023-01-30T02:35:37;-1.80;99.90
8537;DHT22;4306;50.210;10.628;2023-01-30T02:38:15;-1.90;99.90
8537;DHT22;4306;50.210;10.628;2023-01-30T02:40:51;-1.90;99.90
8537;DHT22;4306;50.210;10.628;2023-01-30T02:43:23;-1.80;99.90
8537;DHT22;4306;50.210;10.628;2023-01-30T02:45:55;-1.90;99.90
8537;DHT22;4306;50.210;10.628;2023-01-30T02:48:28;-1.80;99.90
8537;DHT22;4306;50.210;10.628;2023-01-30T02:51:01;-1.80;99.90
8537;DHT22;4306;50.210;10.628;2023-01-30T02:53:31;-1.80;99.90
8537;DHT22;4306;50.210;10.628;2023-01-30T02:55:58;-1.80;99.90
8537;DHT22;4306;50.210;10.628;2023-01-30T02:58:27;-1.80;99.90
8537;DHT22;4306;50.210;10.628;2023-01-30T03:04:18;-1.70;99.90
8537;DHT22;4306;50.210;10.628;2023-01-30T03:07:17;-1.70;99.90
8537;DHT22;4306;50.210;10.628;2023-01-30T03:09:52;-1.70;99.90
8537;DHT22;4306;50.210;10.628;2023-01-30T03:12:34;-1.60;99.90
8537;DHT22;4306;50.210;10.628;2023-01-30T03:15:07;-1.70;99.90
8537;DHT22;4306;50.210;10.628;2023-01-30T03:17:37;-1.60;99.90
8537;DHT22;4306;50.210;10.628;2023-01-30T03:20:10;-1.60;99.90
8537;DHT22;4306;50.210;10.628;2023-01-30T03:22:37;-1.60;99.90
8537;DHT22;4306;50.210;10.628;2023-01-30T03:25:04;-1.50;99.90
8537;DHT22;4306;50.210;10.628;2023-01-30T03:27:32;-1.50;99.90
8537;DHT22;4306;50.210;10.628;2023-01-30T03:29:59;-1.50;99.90
8537;DHT22;4306;50.210;10.628;2023-01-30T03:32:26;-1.50;99.90
8537;DHT22;4306;50.210;10.628;2023-01-30T03:34:53;-1.40;99.90
8537;DHT22;4306;50.210;10.628;2023-01-30T03:37:21;-1.40;99.90
8537;DHT22;4306;50.210;10.628;2023-01-30T03:39:48;-1.40;99.90
8537;DHT22;4306;50.210;10.628;2023-01-30T03:42:15;-1.40;99.90
8537;DHT22;4306;50.210;10.628;2023-01-30T03:44:42;-1.40;99.90
8537;DHT22;4306;50.210;10.628;2023-01-30T03:47:09;-1.30;99.90
8537;DHT22;4306;50.210;10.628;2023-01-30T03:49:36;-1.30;99.90
8537;DHT22;4306;50.210;10.628;2023-01-30T03:52:03;-1.20;99.90
8537;DHT22;4306;50.210;10.628;2023-01-30T03:54:31;-1.20;99.90
8537;DHT22;4306;50.210;10.628;2023-01-30T03:56:58;-1.20;99.90
8537;DHT22;4306;50.210;10.628;2023-01-30T03:59:25;-1.00;99.90
8537;DHT22;4306;50.210;10.628;2023-01-30T04:01:51;-1.10;99.90
8537;DHT22;4306;50.210;10.628;2023-01-30T04:04:18;-1.10;99.90
8537;DHT22;4306;50.210;10.628;2023-01-30T04:06:45;-1.10;99.90
8537;DHT22;4306;50.210;10.628;2023-01-30T04:09:12;-0.90;99.90
8537;DHT22;4306;50.210;10.628;2023-01-30T04:11:40;-1.10;99.90
8537;DHT22;4306;50.210;10.628;2023-01-30T04:14:07;-1.00;99.90
8537;DHT22;4306;50.210;10.628;2023-01-30T04:16:34;-1.00;99.90
8537;DHT22;4306;50.210;10.628;2023-01-30T04:19:01;-0.90;99.90
8537;DHT22;4306;50.210;10.628;2023-01-30T04:21:28;-0.90;99.90
8537;DHT22;4306;50.210;10.628;2023-01-30T04:23:55;-0.90;99.90
8537;DHT22;4306;50.210;10.628;2023-01-30T04:26:21;-0.80;99.90
8537;DHT22;4306;50.210;10.628;2023-01-30T04:28:50;-0.80;99.90
8537;DHT22;4306;50.210;10.628;2023-01-30T04:31:16;-0.80;99.90
8537;DHT22;4306;50.210;10.628;2023-01-30T04:33:43;-0.80;99.90
8537;DHT22;4306;50.210;10.628;2023-01-30T04:36:10;-0.70;99.90
8537;DHT22;4306;50.210;10.628;2023-01-30T04:38:38;-0.70;99.90
8537;DHT22;4306;50.210;10.628;2023-01-30T04:41:05;-0.70;99.90
8537;DHT22;4306;50.210;10.628;2023-01-30T04:43:32;-0.60;99.90
8537;DHT22;4306;50.210;10.628;2023-01-30T04:46:00;-0.70;99.90
8537;DHT22;4306;50.210;10.628;2023-01-30T04:48:27;-0.70;99.90
8537;DHT22;4306;50.210;10.628;2023-01-30T04:50:55;-0.60;99.90
8537;DHT22;4306;50.210;10.628;2023-01-30T04:53:22;-0.60;99.90
8537;DHT22;4306;50.210;10.628;2023-01-30T04:55:49;-0.50;99.90
8537;DHT22;4306;50.210;10.628;2023-01-30T04:58:16;-0.60;99.90
8537;DHT22;4306;50.210;10.628;2023-01-30T05:00:45;-0.60;99.90
8537;DHT22;4306;50.210;10.628;2023-01-30T05:03:13;-0.60;99.90
8537;DHT22;4306;50.210;10.628;2023-01-30T05:05:41;-0.60;99.90
8537;DHT22;4306;50.210;10.628;2023-01-30T05:08:07;-0.60;99.90
8537;DHT22;4306;50.210;10.628;2023-01-30T05:10:34;-0.50;99.90
8537;DHT22;4306;50.210;10.628;2023-01-30T05:13:01;-0.50;99.90
8537;DHT22;4306;50.210;10.628;2023-01-30T05:15:28;-0.50;99.90
8537;DHT22;4306;50.210;10.628;2023-01-30T05:17:55;-0.50;99.90
8537;DHT22;4306;50.210;10.628;2023-01-30T05:20:24;-0.50;99.90
8537;DHT22;4306;50.210;10.628;2023-01-30T05:22:50;-0.40;99.90
8537;DHT22;4306;50.210;10.628;2023-01-30T05:25:17;-0.40;99.90
8537;DHT22;4306;50.210;10.628;2023-01-30T05:27:44;-0.40;99.90
8537;DHT22;4306;50.210;10.628;2023-01-30T05:30:11;-0.40;99.90
8537;DHT22;4306;50.210;10.628;2023-01-30T05:32:38;-0.40;99.90
8537;DHT22;4306;50.210;10.628;2023-01-30T05:35:06;-0.40;99.90
8537;DHT22;4306;50.210;10.628;2023-01-30T05:37:34;-0.30;99.90
8537;DHT22;4306;50.210;10.628;2023-01-30T05:40:03;-0.30;99.90
8537;DHT22;4306;50.210;10.628;2023-01-30T05:42:30;-0.30;99.90
8537;DHT22;4306;50.210;10.628;2023-01-30T05:44:57;-0.20;99.90
8537;DHT22;4306;50.210;10.628;2023-01-30T05:47:24;-0.30;99.90
8537;DHT22;4306;50.210;10.628;2023-01-30T05:49:50;-0.20;99.90
8537;DHT22;4306;50.210;10.628;2023-01-30T05:52:17;-0.20;99.90
8537;DHT22;4306;50.210;10.628;2023-01-30T05:54:46;-0.20;99.90
8537;DHT22;4306;50.210;10.628;2023-01-30T05:57:12;-0.20;99.90
8537;DHT22;4306;50.210;10.628;2023-01-30T05:59:39;-0.20;99.90
8537;DHT22;4306;50.210;10.628;2023-01-30T06:02:06;-0.20;99.90
8537;DHT22;4306;50.210;10.628;2023-01-30T06:04:33;-0.20;99.90
8537;DHT22;4306;50.210;10.628;2023-01-30T06:07:01;-0.20;99.90
8537;DHT22;4306;50.210;10.628;2023-01-30T06:09:27;-0.20;99.90
8537;DHT22;4306;50.210;10.628;2023-01-30T06:11:56;-0.20;99.90
8537;DHT22;4306;50.210;10.628;2023-01-30T06:14:22;-0.20;99.90
8537;DHT22;4306;50.210;10.628;2023-01-30T06:16:49;-0.30;99.90
8537;DHT22;4306;50.210;10.628;2023-01-30T06:19:16;-0.20;99.90
8537;DHT22;4306;50.210;10.628;2023-01-30T06:21:43;-0.30;99.90
8537;DHT22;4306;50.210;10.628;2023-01-30T06:24:10;-0.30;99.90
8537;DHT22;4306;50.210;10.628;2023-01-30T06:26:37;-0.30;99.90
8537;DHT22;4306;50.210;10.628;2023-01-30T06:29:05;-0.20;99.90
8537;DHT22;4306;50.210;10.628;2023-01-30T06:31:32;-0.20;99.90
8537;DHT22;4306;50.210;10.628;2023-01-30T06:33:59;-0.20;99.90
8537;DHT22;4306;50.210;10.628;2023-01-30T06:36:25;-0.20;99.90
8537;DHT22;4306;50.210;10.628;2023-01-30T06:38:52;-0.20;99.90
8537;DHT22;4306;50.210;10.628;2023-01-30T06:41:19;-0.10;99.90
8537;DHT22;4306;50.210;10.628;2023-01-30T06:43:46;0.00;99.90
8537;DHT22;4306;50.210;10.628;2023-01-30T06:46:14;0.00;99.90
8537;DHT22;4306;50.210;10.628;2023-01-30T06:48:42;-0.10;99.90
8537;DHT22;4306;50.210;10.628;2023-01-30T06:51:09;-0.10;99.90
8537;DHT22;4306;50.210;10.628;2023-01-30T06:53:36;-0.10;99.90
8537;DHT22;4306;50.210;10.628;2023-01-30T06:56:03;0.00;99.90
8537;DHT22;4306;50.210;10.628;2023-01-30T06:58:30;0.00;99.90
8537;DHT22;4306;50.210;10.628;2023-01-30T07:00:57;0.00;99.90
8537;DHT22;4306;50.210;10.628;2023-01-30T07:03:25;0.00;99.90
8537;DHT22;4306;50.210;10.628;2023-01-30T07:05:52;0.10;99.90
8537;DHT22;4306;50.210;10.628;2023-01-30T07:08:19;0.10;99.90
8537;DHT22;4306;50.210;10.628;2023-01-30T07:10:46;0.20;99.90
8537;DHT22;4306;50.210;10.628;2023-01-30T07:13:12;0.20;99.90
8537;DHT22;4306;50.210;10.628;2023-01-30T07:15:40;0.20;99.90
8537;DHT22;4306;50.210;10.628;2023-01-30T07:18:07;0.20;99.90
8537;DHT22;4306;50.210;10.628;2023-01-30T07:20:35;0.20;99.90
8537;DHT22;4306;50.210;10.628;2023-01-30T07:23:02;0.30;99.90
8537;DHT22;4306;50.210;10.628;2023-01-30T07:25:29;0.30;99.90
8537;DHT22;4306;50.210;10.628;2023-01-30T07:27:58;0.30;99.90
8537;DHT22;4306;50.210;10.628;2023-01-30T07:30:26;0.30;99.90
8537;DHT22;4306;50.210;10.628;2023-01-30T07:32:54;0.30;99.90
8537;DHT22;4306;50.210;10.628;2023-01-30T07:35:23;0.30;99.90
8537;DHT22;4306;50.210;10.628;2023-01-30T07:37:52;0.40;99.90
8537;DHT22;4306;50.210;10.628;2023-01-30T07:40:20;0.40;99.90
8537;DHT22;4306;50.210;10.628;2023-01-30T07:42:55;0.30;99.90
8537;DHT22;4306;50.210;10.628;2023-01-30T07:45:23;0.30;99.90
8537;DHT22;4306;50.210;10.628;2023-01-30T07:47:49;0.40;99.90
8537;DHT22;4306;50.210;10.628;2023-01-30T07:50:16;0.40;99.90
8537;DHT22;4306;50.210;10.628;2023-01-30T07:52:44;0.40;99.90
8537;DHT22;4306;50.210;10.628;2023-01-30T07:55:12;0.40;99.90
8537;DHT22;4306;50.210;10.628;2023-01-30T07:57:39;0.50;99.90
8537;DHT22;4306;50.210;10.628;2023-01-30T08:00:07;0.50;99.90
8537;DHT22;4306;50.210;10.628;2023-01-30T08:02:35;0.50;99.90
8537;DHT22;4306;50.210;10.628;2023-01-30T08:05:02;0.50;99.90
8537;DHT22;4306;50.210;10.628;2023-01-30T08:07:29;0.50;99.90
8537;DHT22;4306;50.210;10.628;2023-01-30T08:09:56;0.40;99.90
8537;DHT22;4306;50.210;10.628;2023-01-30T08:12:25;0.50;99.90
8537;DHT22;4306;50.210;10.628;2023-01-30T08:14:52;0.50;99.90
8537;DHT22;4306;50.210;10.628;2023-01-30T08:17:19;0.50;99.90
8537;DHT22;4306;50.210;10.628;2023-01-30T08:19:45;0.50;99.90
8537;DHT22;4306;50.210;10.628;2023-01-30T08:22:13;0.60;99.90
8537;DHT22;4306;50.210;10.628;2023-01-30T08:24:40;0.60;99.90
8537;DHT22;4306;50.210;10.628;2023-01-30T08:27:07;0.50;99.90
8537;DHT22;4306;50.210;10.628;2023-01-30T08:29:35;0.60;99.90
8537;DHT22;4306;50.210;10.628;2023-01-30T08:32:02;0.60;99.90
8537;DHT22;4306;50.210;10.628;2023-01-30T08:34:29;0.60;99.90
8537;DHT22;4306;50.210;10.628;2023-01-30T08:36:56;0.70;99.90
8537;DHT22;4306;50.210;10.628;2023-01-30T08:39:23;0.60;99.90
8537;DHT22;4306;50.210;10.628;2023-01-30T08:41:50;0.60;99.90
8537;DHT22;4306;50.210;10.628;2023-01-30T08:44:17;0.70;99.90
8537;DHT22;4306;50.210;10.628;2023-01-30T08:46:45;0.80;99.90
8537;DHT22;4306;50.210;10.628;2023-01-30T08:49:12;0.70;99.90
8537;DHT22;4306;50.210;10.628;2023-01-30T08:51:39;0.70;99.90
8537;DHT22;4306;50.210;10.628;2023-01-30T08:54:06;0.80;99.90
8537;DHT22;4306;50.210;10.628;2023-01-30T08:56:33;0.80;99.90
8537;DHT22;4306;50.210;10.628;2023-01-30T08:59:00;0.80;99.90
8537;DHT22;4306;50.210;10.628;2023-01-30T09:01:27;0.90;99.90
8537;DHT22;4306;50.210;10.628;2023-01-30T09:03:55;0.90;99.90
8537;DHT22;4306;50.210;10.628;2023-01-30T09:06:22;0.90;99.90
8537;DHT22;4306;50.210;10.628;2023-01-30T09:08:49;1.00;99.90
8537;DHT22;4306;50.210;10.628;2023-01-30T09:11:16;1.00;99.90
8537;DHT22;4306;50.210;10.628;2023-01-30T09:13:43;1.10;99.90
8537;DHT22;4306;50.210;10.628;2023-01-30T09:16:10;1.20;99.90
8537;DHT22;4306;50.210;10.628;2023-01-30T09:18:38;1.20;99.90
8537;DHT22;4306;50.210;10.628;2023-01-30T09:21:08;1.20;99.90
8537;DHT22;4306;50.210;10.628;2023-01-30T09:23:35;1.30;99.90
8537;DHT22;4306;50.210;10.628;2023-01-30T09:26:02;1.30;99.90
8537;DHT22;4306;50.210;10.628;2023-01-30T09:28:30;1.30;99.90
8537;DHT22;4306;50.210;10.628;2023-01-30T09:30:57;1.30;99.90
8537;DHT22;4306;50.210;10.628;2023-01-30T09:33:25;1.30;99.90
8537;DHT22;4306;50.210;10.628;2023-01-30T09:35:52;1.30;99.90
8537;DHT22;4306;50.210;10.628;2023-01-30T09:38:20;1.40;99.90
8537;DHT22;4306;50.210;10.628;2023-01-30T09:41:06;1.40;99.90
8537;DHT22;4306;50.210;10.628;2023-01-30T09:43:52;1.40;99.90
8537;DHT22;4306;50.210;10.628;2023-01-30T09:46:33;1.40;99.90
8537;DHT22;4306;50.210;10.628;2023-01-30T09:49:13;1.50;99.90
8537;DHT22;4306;50.210;10.628;2023-01-30T09:51:51;1.40;99.90
8537;DHT22;4306;50.210;10.628;2023-01-30T09:54:25;1.40;99.90
8537;DHT22;4306;50.210;10.628;2023-01-30T09:57:09;1.30;99.90
8537;DHT22;4306;50.210;10.628;2023-01-30T09:59:44;1.40;99.90
8537;DHT22;4306;50.210;10.628;2023-01-30T10:02:34;1.40;99.90
8537;DHT22;4306;50.210;10.628;2023-01-30T10:05:03;1.40;99.90
8537;DHT22;4306;50.210;10.628;2023-01-30T10:07:37;1.40;99.90
8537;DHT22;4306;50.210;10.628;2023-01-30T10:10:16;1.40;99.90
8537;DHT22;4306;50.210;10.628;2023-01-30T10:12:53;1.40;99.90
8537;DHT22;4306;50.210;10.628;2023-01-30T10:15:44;1.40;99.90
8537;DHT22;4306;50.210;10.628;2023-01-30T10:18:30;1.40;99.90
8537;DHT22;4306;50.210;10.628;2023-01-30T10:21:10;1.50;99.90
8537;DHT22;4306;50.210;10.628;2023-01-30T10:23:53;1.40;99.90
8537;DHT22;4306;50.210;10.628;2023-01-30T10:26:26;1.40;99.90
8537;DHT22;4306;50.210;10.628;2023-01-30T10:28:57;1.40;99.90
8537;DHT22;4306;50.210;10.628;2023-01-30T10:31:29;1.40;99.90
8537;DHT22;4306;50.210;10.628;2023-01-30T10:34:01;1.40;99.90
8537;DHT22;4306;50.210;10.628;2023-01-30T10:36:35;1.50;99.90
8537;DHT22;4306;50.210;10.628;2023-01-30T10:39:20;1.50;99.90
8537;DHT22;4306;50.210;10.628;2023-01-30T10:41:55;1.50;99.90
8537;DHT22;4306;50.210;10.628;2023-01-30T10:44:24;1.50;99.90
8537;DHT22;4306;50.210;10.628;2023-01-30T10:47:19;1.50;99.90
8537;DHT22;4306;50.210;10.628;2023-01-30T10:49:52;1.60;99.90
8537;DHT22;4306;50.210;10.628;2023-01-30T10:52:26;1.60;99.90
8537;DHT22;4306;50.210;10.628;2023-01-30T10:55:02;1.40;99.90
8537;DHT22;4306;50.210;10.628;2023-01-30T10:57:40;1.70;99.90
8537;DHT22;4306;50.210;10.628;2023-01-30T11:00:19;1.70;99.90
8537;DHT22;4306;50.210;10.628;2023-01-30T11:05:41;1.70;99.90
8537;DHT22;4306;50.210;10.628;2023-01-30T11:08:20;1.80;99.90
8537;DHT22;4306;50.210;10.628;2023-01-30T11:10:48;2.00;99.90
8537;DHT22;4306;50.210;10.628;2023-01-30T11:13:18;2.00;99.90
8537;DHT22;4306;50.210;10.628;2023-01-30T11:15:48;2.10;99.90
8537;DHT22;4306;50.210;10.628;2023-01-30T11:18:17;2.00;99.90
8537;DHT22;4306;50.210;10.628;2023-01-30T11:21:00;2.10;99.90
8537;DHT22;4306;50.210;10.628;2023-01-30T11:23:32;2.10;99.90
8537;DHT22;4306;50.210;10.628;2023-01-30T11:26:01;2.30;99.90
8537;DHT22;4306;50.210;10.628;2023-01-30T11:28:35;2.30;99.90
8537;DHT22;4306;50.210;10.628;2023-01-30T11:31:02;2.20;99.90
8537;DHT22;4306;50.210;10.628;2023-01-30T11:33:31;2.30;99.90
8537;DHT22;4306;50.210;10.628;2023-01-30T11:36:00;2.40;99.90
8537;DHT22;4306;50.210;10.628;2023-01-30T11:38:28;2.40;99.90
8537;DHT22;4306;50.210;10.628;2023-01-30T11:41:05;2.40;99.90
8537;DHT22;4306;50.210;10.628;2023-01-30T11:43:35;2.30;99.90
8537;DHT22;4306;50.210;10.628;2023-01-30T11:46:05;2.30;99.90
8537;DHT22;4306;50.210;10.628;2023-01-30T11:48:35;2.20;99.90
8537;DHT22;4306;50.210;10.628;2023-01-30T11:51:06;2.30;99.90
8537;DHT22;4306;50.210;10.628;2023-01-30T11:53:36;2.30;99.90
8537;DHT22;4306;50.210;10.628;2023-01-30T11:56:07;2.30;99.90
8537;DHT22;4306;50.210;10.628;2023-01-30T11:58:38;2.40;99.90
8537;DHT22;4306;50.210;10.628;2023-01-30T12:01:08;2.50;99.90
8537;DHT22;4306;50.210;10.628;2023-01-30T12:03:43;2.50;99.90
8537;DHT22;4306;50.210;10.628;2023-01-30T12:06:11;2.40;99.90
8537;DHT22;4306;50.210;10.628;2023-01-30T12:08:50;2.40;99.90
8537;DHT22;4306;50.210;10.628;2023-01-30T12:11:27;2.40;99.90
8537;DHT22;4306;50.210;10.628;2023-01-30T12:14:05;2.40;99.90
8537;DHT22;4306;50.210;10.628;2023-01-30T12:16:45;2.30;99.90
8537;DHT22;4306;50.210;10.628;2023-01-30T12:19:22;2.40;99.90
8537;DHT22;4306;50.210;10.628;2023-01-30T12:21:56;2.50;99.90
8537;DHT22;4306;50.210;10.628;2023-01-30T12:24:30;2.50;99.90
8537;DHT22;4306;50.210;10.628;2023-01-30T12:27:03;2.50;99.90
8537;DHT22;4306;50.210;10.628;2023-01-30T12:29:35;2.50;99.90
8537;DHT22;4306;50.210;10.628;2023-01-30T12:32:06;2.50;99.90
8537;DHT22;4306;50.210;10.628;2023-01-30T12:34:34;2.40;99.90
8537;DHT22;4306;50.210;10.628;2023-01-30T12:37:12;2.40;99.90
8537;DHT22;4306;50.210;10.628;2023-01-30T12:39:51;2.50;99.90
8537;DHT22;4306;50.210;10.628;2023-01-30T12:42:33;2.60;99.90
8537;DHT22;4306;50.210;10.628;2023-01-30T12:45:18;2.50;99.90
8537;DHT22;4306;50.210;10.628;2023-01-30T12:48:01;2.60;99.90
8537;DHT22;4306;50.210;10.628;2023-01-30T12:50:46;2.60;99.90
8537;DHT22;4306;50.210;10.628;2023-01-30T12:53:25;2.80;99.90
8537;DHT22;4306;50.210;10.628;2023-01-30T12:56:11;2.80;99.90
8537;DHT22;4306;50.210;10.628;2023-01-30T12:58:46;2.90;99.90
8537;DHT22;4306;50.210;10.628;2023-01-30T13:01:21;2.90;99.90
8537;DHT22;4306;50.210;10.628;2023-01-30T13:03:57;2.80;99.90
8537;DHT22;4306;50.210;10.628;2023-01-30T13:06:43;2.90;99.90
8537;DHT22;4306;50.210;10.628;2023-01-30T13:09:40;3.00;99.90
8537;DHT22;4306;50.210;10.628;2023-01-30T13:12:15;3.10;99.90
8537;DHT22;4306;50.210;10.628;2023-01-30T13:14:50;3.10;99.90
8537;DHT22;4306;50.210;10.628;2023-01-30T13:17:43;3.20;99.90
8537;DHT22;4306;50.210;10.628;2023-01-30T13:20:22;3.20;99.90
8537;DHT22;4306;50.210;10.628;2023-01-30T13:23:01;3.40;99.90
8537;DHT22;4306;50.210;10.628;2023-01-30T13:25:37;3.30;99.90
8537;DHT22;4306;50.210;10.628;2023-01-30T13:28:11;3.40;99.90
8537;DHT22;4306;50.210;10.628;2023-01-30T13:30:40;3.40;99.90
8537;DHT22;4306;50.210;10.628;2023-01-30T13:33:12;3.40;99.90
8537;DHT22;4306;50.210;10.628;2023-01-30T13:35:44;3.40;99.90
8537;DHT22;4306;50.210;10.628;2023-01-30T13:38:17;3.40;99.90
8537;DHT22;4306;50.210;10.628;2023-01-30T13:40:46;3.40;99.90
8537;DHT22;4306;50.210;10.628;2023-01-30T13:43:18;3.60;99.90
8537;DHT22;4306;50.210;10.628;2023-01-30T13:45:47;3.60;99.90
8537;DHT22;4306;50.210;10.628;2023-01-30T13:48:25;3.60;99.90
8537;DHT22;4306;50.210;10.628;2023-01-30T13:54:05;3.50;99.90
8537;DHT22;4306;50.210;10.628;2023-01-30T13:56:40;3.60;99.90
8537;DHT22;4306;50.210;10.628;2023-01-30T13:59:16;3.50;99.90
8537;DHT22;4306;50.210;10.628;2023-01-30T14:02:15;3.50;99.90
8537;DHT22;4306;50.210;10.628;2023-01-30T14:04:46;3.50;99.90
8537;DHT22;4306;50.210;10.628;2023-01-30T14:07:17;3.40;99.90
8537;DHT22;4306;50.210;10.628;2023-01-30T14:09:50;3.40;99.90
8537;DHT22;4306;50.210;10.628;2023-01-30T14:12:19;3.30;99.90
8537;DHT22;4306;50.210;10.628;2023-01-30T14:15:00;3.30;99.90
8537;DHT22;4306;50.210;10.628;2023-01-30T14:17:28;3.40;99.90
8537;DHT22;4306;50.210;10.628;2023-01-30T14:20:00;3.40;99.90
8537;DHT22;4306;50.210;10.628;2023-01-30T14:22:32;3.40;99.90
8537;DHT22;4306;50.210;10.628;2023-01-30T14:31:46;3.50;99.90
8537;DHT22;4306;50.210;10.628;2023-01-30T14:34:47;3.40;99.90
8537;DHT22;4306;50.210;10.628;2023-01-30T14:40:40;3.40;99.90
8537;DHT22;4306;50.210;10.628;2023-01-30T14:49:32;3.30;99.90
8537;DHT22;4306;50.210;10.628;2023-01-30T14:52:01;3.30;99.90
8537;DHT22;4306;50.210;10.628;2023-01-30T14:54:46;3.20;99.90
8537;DHT22;4306;50.210;10.628;2023-01-30T14:57:19;3.20;99.90
8537;DHT22;4306;50.210;10.628;2023-01-30T14:59:49;3.20;99.90
8537;DHT22;4306;50.210;10.628;2023-01-30T15:02:22;3.20;99.90
8537;DHT22;4306;50.210;10.628;2023-01-30T15:04:57;3.20;99.90
8537;DHT22;4306;50.210;10.628;2023-01-30T15:07:31;3.20;99.90
8537;DHT22;4306;50.210;10.628;2023-01-30T15:10:05;3.20;99.90
8537;DHT22;4306;50.210;10.628;2023-01-30T15:12:58;3.20;99.90
8537;DHT22;4306;50.210;10.628;2023-01-30T15:15:34;3.20;99.90
8537;DHT22;4306;50.210;10.628;2023-01-30T15:18:16;3.20;99.90
8537;DHT22;4306;50.210;10.628;2023-01-30T15:21:01;3.20;99.90
8537;DHT22;4306;50.210;10.628;2023-01-30T15:26:34;3.20;99.90
8537;DHT22;4306;50.210;10.628;2023-01-30T15:29:32;3.20;99.90
8537;DHT22;4306;50.210;10.628;2023-01-30T15:32:15;3.10;99.90
8537;DHT22;4306;50.210;10.628;2023-01-30T15:34:49;3.20;99.90
8537;DHT22;4306;50.210;10.628;2023-01-30T15:37:31;3.20;99.90
8537;DHT22;4306;50.210;10.628;2023-01-30T15:40:17;3.20;99.90
8537;DHT22;4306;50.210;10.628;2023-01-30T15:42:47;3.10;99.90
8537;DHT22;4306;50.210;10.628;2023-01-30T15:45:20;3.10;99.90
8537;DHT22;4306;50.210;10.628;2023-01-30T15:47:59;3.00;99.90
8537;DHT22;4306;50.210;10.628;2023-01-30T15:50:29;3.00;99.90
8537;DHT22;4306;50.210;10.628;2023-01-30T15:52:56;3.00;99.90
8537;DHT22;4306;50.210;10.628;2023-01-30T15:55:24;3.00;99.90
8537;DHT22;4306;50.210;10.628;2023-01-30T15:57:55;3.00;99.90
8537;DHT22;4306;50.210;10.628;2023-01-30T16:00:27;3.00;99.90
8537;DHT22;4306;50.210;10.628;2023-01-30T16:02:56;3.00;99.90
8537;DHT22;4306;50.210;10.628;2023-01-30T16:05:24;3.10;99.90
8537;DHT22;4306;50.210;10.628;2023-01-30T16:07:52;3.10;99.90
8537;DHT22;4306;50.210;10.628;2023-01-30T16:10:21;3.10;99.90
8537;DHT22;4306;50.210;10.628;2023-01-30T16:12:49;3.00;99.90
8537;DHT22;4306;50.210;10.628;2023-01-30T16:15:25;3.10;99.90
8537;DHT22;4306;50.210;10.628;2023-01-30T16:17:58;3.00;99.90
8537;DHT22;4306;50.210;10.628;2023-01-30T16:20:25;3.00;99.90
8537;DHT22;4306;50.210;10.628;2023-01-30T16:22:52;3.00;99.90
8537;DHT22;4306;50.210;10.628;2023-01-30T16:25:22;3.10;99.90
8537;DHT22;4306;50.210;10.628;2023-01-30T16:27:50;3.10;99.90
8537;DHT22;4306;50.210;10.628;2023-01-30T16:30:23;3.00;99.90
8537;DHT22;4306;50.210;10.628;2023-01-30T16:32:53;3.10;99.90
8537;DHT22;4306;50.210;10.628;2023-01-30T16:35:31;3.00;99.90
8537;DHT22;4306;50.210;10.628;2023-01-30T16:38:00;3.10;99.90
8537;DHT22;4306;50.210;10.628;2023-01-30T16:40:30;3.10;99.90
8537;DHT22;4306;50.210;10.628;2023-01-30T16:42:59;3.10;99.90
8537;DHT22;4306;50.210;10.628;2023-01-30T16:48:48;3.10;99.90
8537;DHT22;4306;50.210;10.628;2023-01-30T16:51:19;3.20;99.90
8537;DHT22;4306;50.210;10.628;2023-01-30T16:54:04;3.20;99.90
8537;DHT22;4306;50.210;10.628;2023-01-30T16:56:45;3.10;99.90
8537;DHT22;4306;50.210;10.628;2023-01-30T16:59:18;3.10;99.90